Time;durP1;ratioP1;P1;durP2;ratioP2;P2;SDS_P1;SDS_P2;PMS_P1;PMS_P2;Temp;Humidity;BMP_temperature;BMP_pressure;BME280_temperature;BME280_humidity;BME280_pressure;Samples;Min_cycle;Max_cycle;Signal;HPM_P1;HPM_P2
2023/12/30 00:02:24;;;;;;;7.18;4.00;;;;;;;3.45;100.00;94945.06;5002109;28;20212;-74
2023/12/30 00:04:51;;;;;;;11.73;4.93;;;;;;;3.38;100.00;94956.06;4996033;28;20325;-74
2023/12/30 00:07:17;;;;;;;13.07;4.57;;;;;;;3.35;100.00;94951.25;4991132;28;20206;-74
2023/12/30 00:09:44;;;;;;;6.85;3.47;;;;;;;3.20;100.00;94949.44;4992885;28;20205;-74
2023/12/30 00:12:12;;;;;;;8.27;4.90;;;;;;;3.05;100.00;94962.06;5002207;28;20229;-75
2023/12/30 00:14:39;;;;;;;0.25;0.25;;;;;;;3.06;100.00;94953.78;5006331;28;20209;-75
2023/12/30 00:17:06;;;;;;;0.55;0.55;;;;;;;3.25;100.00;94940.59;5010246;28;20233;-73
2023/12/30 00:19:34;;;;;;;1.65;1.17;;;;;;;3.22;100.00;94949.97;5008543;28;20219;-75
2023/12/30 00:22:02;;;;;;;0.88;0.82;;;;;;;3.11;100.00;94942.25;4991314;28;20538;-75
2023/12/30 00:24:29;;;;;;;4.22;2.22;;;;;;;3.23;100.00;94948.09;4990555;28;20301;-76
2023/12/30 00:26:56;;;;;;;0.50;0.50;;;;;;;3.18;100.00;94950.78;4990969;28;20681;-75
2023/12/30 00:29:24;;;;;;;2.38;1.48;;;;;;;3.21;100.00;94952.91;4990938;28;20227;-74
2023/12/30 00:31:51;;;;;;;0.45;0.43;;;;;;;3.02;100.00;94962.59;4991301;28;20214;-74
2023/12/30 00:34:18;;;;;;;1.38;1.30;;;;;;;3.07;100.00;94960.72;4990172;28;20210;-74
2023/12/30 00:36:44;;;;;;;0.30;0.30;;;;;;;3.23;100.00;94964.16;4991065;28;20593;-75
2023/12/30 00:39:11;;;;;;;0.50;0.50;;;;;;;3.13;100.00;94966.88;4993727;28;20259;-74
2023/12/30 00:41:38;;;;;;;0.90;0.82;;;;;;;3.17;100.00;94962.56;5001552;28;20201;-75
2023/12/30 00:44:05;;;;;;;0.40;0.40;;;;;;;3.17;100.00;94960.69;4997290;28;20209;-75
2023/12/30 00:46:33;;;;;;;0.40;0.40;;;;;;;3.14;100.00;94973.84;4994105;28;20268;-75
2023/12/30 00:49:00;;;;;;;2.25;2.05;;;;;;;3.07;100.00;94970.63;4994361;28;20209;-76
2023/12/30 00:51:27;;;;;;;2.60;1.25;;;;;;;3.17;100.00;94965.25;5005169;28;20587;-75
2023/12/30 00:53:54;;;;;;;0.88;0.88;;;;;;;3.03;100.00;94958.84;5014193;28;20216;-76
2023/12/30 00:56:21;;;;;;;0.75;0.75;;;;;;;3.04;100.00;94971.97;5001842;28;20237;-75
2023/12/30 00:58:48;;;;;;;0.70;0.70;;;;;;;3.15;100.00;94967.38;4994130;28;20328;-76
2023/12/30 01:01:15;;;;;;;0.57;0.57;;;;;;;3.15;100.00;94967.38;4995925;28;20208;-73
2023/12/30 01:03:43;;;;;;;0.90;0.90;;;;;;;3.39;100.00;94970.25;5009084;28;20586;-75
2023/12/30 01:06:10;;;;;;;0.57;0.57;;;;;;;3.49;100.00;94956.81;4994294;28;20574;-75
2023/12/30 01:08:37;;;;;;;0.40;0.40;;;;;;;3.45;100.00;94966.47;4999658;28;20209;-77
2023/12/30 01:11:04;;;;;;;0.63;0.63;;;;;;;3.41;100.00;94960.09;5001429;28;20214;-75
2023/12/30 01:13:31;;;;;;;0.77;0.77;;;;;;;3.18;100.00;94973.00;4993961;28;20217;-76
2023/12/30 01:15:57;;;;;;;0.22;0.22;;;;;;;3.07;100.00;94971.44;4994075;28;20228;-75
2023/12/30 01:18:25;;;;;;;0.45;0.45;;;;;;;2.85;100.00;94974.44;5006638;28;20237;-75
2023/12/30 01:20:53;;;;;;;0.35;0.35;;;;;;;2.92;100.00;94971.47;4993896;28;20218;-75
2023/12/30 01:23:20;;;;;;;0.63;0.63;;;;;;;2.91;100.00;94967.19;4993697;28;20252;-75
2023/12/30 01:25:46;;;;;;;1.90;1.17;;;;;;;3.01;100.00;94972.50;4993775;28;20228;-75
2023/12/30 01:28:13;;;;;;;0.30;0.30;;;;;;;3.16;100.00;94969.78;4993492;28;20214;-75
2023/12/30 01:30:41;;;;;;;1.40;0.95;;;;;;;3.27;100.00;94959.88;4993821;28;20260;-76
2023/12/30 01:33:08;;;;;;;0.38;0.38;;;;;;;3.07;100.00;94954.56;4993632;28;20310;-75
2023/12/30 01:35:35;;;;;;;0.63;0.63;;;;;;;2.88;100.00;94958.88;4993438;28;20206;-76
2023/12/30 01:38:03;;;;;;;1.35;1.25;;;;;;;2.77;100.00;94961.59;4993432;28;20272;-75
2023/12/30 01:40:30;;;;;;;9.88;1.52;;;;;;;2.58;100.00;94957.88;5007904;28;20201;-75
2023/12/30 01:42:57;;;;;;;0.30;0.30;;;;;;;2.65;100.00;94966.44;5012930;28;20240;-75
2023/12/30 01:45:23;;;;;;;0.30;0.30;;;;;;;2.75;100.00;94953.03;5011846;28;20217;-74
2023/12/30 01:47:51;;;;;;;1.20;1.05;;;;;;;2.50;100.00;94961.09;4993635;28;20236;-75
2023/12/30 01:50:19;;;;;;;7.30;4.07;;;;;;;2.46;100.00;94960.81;5005743;28;20319;-75
2023/12/30 01:52:47;;;;;;;7.57;4.10;;;;;;;2.61;100.00;94956.53;5001785;28;20572;-75
2023/12/30 01:55:16;;;;;;;0.65;0.65;;;;;;;2.56;100.00;94957.34;5010141;28;20232;-74
2023/12/30 01:57:45;;;;;;;0.55;0.55;;;;;;;2.61;100.00;94951.19;4992803;28;20238;-75
2023/12/30 02:00:19;;;;;;;0.30;0.30;;;;;;;2.70;100.00;94944.22;4993274;28;20221;-75
2023/12/30 02:02:47;;;;;;;13.45;4.03;;;;;;;2.89;100.00;94947.13;5007742;28;20201;-74
2023/12/30 02:05:14;;;;;;;7.22;4.03;;;;;;;2.87;100.00;94939.34;4995135;28;20662;-74
2023/12/30 02:07:41;;;;;;;8.73;3.45;;;;;;;2.80;100.00;94938.84;4992790;28;20206;-75
2023/12/30 02:10:08;;;;;;;7.78;4.47;;;;;;;2.79;100.00;94937.25;4992620;28;20210;-75
2023/12/30 02:12:36;;;;;;;7.00;3.83;;;;;;;2.58;100.00;94939.19;4992898;28;20217;-73
2023/12/30 02:15:13;;;;;;;5.00;3.30;;;;;;;2.79;100.00;94937.25;4993008;28;20956;-74
2023/12/30 02:17:40;;;;;;;6.18;3.33;;;;;;;2.88;100.00;94940.16;4992303;28;20233;-73
2023/12/30 02:20:08;;;;;;;8.70;3.78;;;;;;;2.77;100.00;94934.03;4992772;28;20220;-74
2023/12/30 02:22:35;;;;;;;6.22;3.38;;;;;;;2.77;100.00;94929.50;4992395;28;20210;-72
2023/12/30 02:25:04;;;;;;;6.30;3.47;;;;;;;2.91;100.00;94935.06;4992726;28;20231;-73
2023/12/30 02:27:30;;;;;;;0.43;0.43;;;;;;;2.84;100.00;94932.69;4992130;28;20293;-73
2023/12/30 02:29:57;;;;;;;1.55;0.73;;;;;;;2.85;100.00;94936.97;4996117;28;20205;-73
2023/12/30 02:32:24;;;;;;;2.17;1.38;;;;;;;2.81;100.00;94935.13;5010990;28;20209;-73
2023/12/30 02:34:51;;;;;;;0.22;0.22;;;;;;;2.65;100.00;94939.69;4992464;28;20252;-74
2023/12/30 02:37:18;;;;;;;0.63;0.63;;;;;;;2.58;100.00;94936.50;4992673;28;20236;-71
2023/12/30 02:39:44;;;;;;;4.57;2.85;;;;;;;2.65;100.00;94934.34;4992465;28;20643;-72
2023/12/30 02:42:13;;;;;;;7.07;3.05;;;;;;;2.58;100.00;94944.53;4992504;28;20272;-73
2023/12/30 02:44:39;;;;;;;7.00;3.70;;;;;;;2.53;100.00;94939.16;4992000;28;20220;-72
2023/12/30 02:47:06;;;;;;;0.20;0.20;;;;;;;2.31;100.00;94946.69;4992357;28;20658;-74
2023/12/30 02:49:34;;;;;;;0.65;0.65;;;;;;;1.95;100.00;94938.63;4992195;28;20675;-73
2023/12/30 02:52:01;;;;;;;0.50;0.50;;;;;;;2.20;100.00;94945.06;4992201;28;20214;-73
2023/12/30 02:54:28;;;;;;;0.50;0.50;;;;;;;2.35;100.00;94939.72;5001535;28;20218;-73
2023/12/30 02:56:56;;;;;;;6.22;3.33;;;;;;;2.33;100.00;94941.84;4994879;28;20290;-74
2023/12/30 02:59:24;;;;;;;6.90;3.97;;;;;;;2.33;100.00;94939.16;4991737;28;20264;-75
2023/12/30 03:01:51;;;;;;;2.38;1.75;;;;;;;2.42;100.00;94943.72;4999158;28;20370;-74
2023/12/30 03:04:18;;;;;;;0.40;0.40;;;;;;;2.48;100.00;94936.50;5001319;28;20581;-74
2023/12/30 03:06:45;;;;;;;0.38;0.38;;;;;;;2.63;100.00;94928.44;4992234;28;20220;-75
2023/12/30 03:09:12;;;;;;;0.70;0.70;;;;;;;2.74;100.00;94923.88;4991799;28;20264;-74
2023/12/30 03:11:39;;;;;;;0.80;0.80;;;;;;;2.64;100.00;94929.25;4992004;28;20217;-75
2023/12/30 03:14:06;;;;;;;0.77;0.75;;;;;;;2.40;100.00;94921.00;4992304;28;20213;-75
2023/12/30 03:16:35;;;;;;;0.20;0.20;;;;;;;2.39;100.00;94927.41;4991934;28;20214;-74
2023/12/30 03:19:02;;;;;;;0.85;0.85;;;;;;;2.42;100.00;94927.69;4991610;28;20260;-74
2023/12/30 03:21:29;;;;;;;0.30;0.30;;;;;;;2.39;100.00;94930.09;4991658;28;20300;-74
2023/12/30 03:23:55;;;;;;;1.40;1.30;;;;;;;2.29;100.00;94928.25;4991640;28;20213;-74
2023/12/30 03:26:22;;;;;;;3.88;1.10;;;;;;;2.43;100.00;94929.31;4991221;28;20602;-74
2023/12/30 03:28:49;;;;;;;0.22;0.22;;;;;;;2.53;100.00;94933.81;4991457;28;20209;-74
2023/12/30 03:31:23;;;;;;;0.55;0.55;;;;;;;2.54;100.00;94934.63;4991712;28;20567;-75
2023/12/30 03:33:51;;;;;;;0.52;0.50;;;;;;;2.67;100.00;94934.88;4991516;28;20216;-75
2023/12/30 03:36:18;;;;;;;2.67;2.47;;;;;;;2.49;100.00;94938.09;4991531;28;20214;-75
2023/12/30 03:38:46;;;;;;;0.35;0.35;;;;;;;2.49;100.00;94932.75;4991027;28;20230;-77
2023/12/30 03:41:12;;;;;;;9.70;3.50;;;;;;;2.46;100.00;94938.66;4991542;28;20217;-76
2023/12/30 03:43:39;;;;;;;1.35;1.25;;;;;;;2.62;100.00;94937.53;5005671;28;20216;-76
2023/12/30 03:46:06;;;;;;;0.30;0.30;;;;;;;2.73;100.00;94928.44;5003489;28;20220;-76
2023/12/30 03:48:33;;;;;;;0.40;0.40;;;;;;;2.64;100.00;94935.41;4991133;28;20205;-73
2023/12/30 03:51:01;;;;;;;3.30;1.95;;;;;;;2.40;100.00;94945.06;5000458;28;20540;-76
2023/12/30 03:53:28;;;;;;;0.20;0.20;;;;;;;2.43;100.00;94945.34;5009822;28;20209;-76
2023/12/30 03:55:55;;;;;;;8.23;3.75;;;;;;;2.35;100.00;94940.50;5003382;28;20666;-74
2023/12/30 03:58:22;;;;;;;7.10;3.22;;;;;;;2.05;100.00;94938.63;5005539;28;20228;-75
2023/12/30 04:00:49;;;;;;;5.78;3.75;;;;;;;1.88;100.00;94938.09;5011294;28;20209;-73
2023/12/30 04:03:15;;;;;;;6.45;3.45;;;;;;;1.88;100.00;94948.78;4992959;28;20205;-75
2023/12/30 04:05:44;;;;;;;7.63;4.05;;;;;;;1.99;100.00;94945.06;4991581;28;20319;-76
2023/12/30 04:08:12;;;;;;;8.68;4.93;;;;;;;1.84;100.00;94947.72;4991488;28;20205;-75
2023/12/30 04:10:39;;;;;;;7.57;5.30;;;;;;;1.99;100.00;94961.09;4991348;28;20224;-75
2023/12/30 04:13:06;;;;;;;6.90;4.75;;;;;;;2.13;100.00;94956.81;4992010;28;20220;-76
2023/12/30 04:15:32;;;;;;;11.50;5.50;;;;;;;2.24;100.00;94956.81;4994968;28;20565;-75
2023/12/30 04:17:59;;;;;;;11.90;6.78;;;;;;;2.30;100.00;94945.06;4995193;28;20641;-76
2023/12/30 04:20:26;;;;;;;0.93;0.90;;;;;;;2.44;100.00;94946.94;4995305;28;20598;-75
2023/12/30 04:22:54;;;;;;;1.52;1.42;;;;;;;2.32;100.00;94961.66;4995208;28;20575;-75
2023/12/30 04:25:23;;;;;;;4.63;1.13;;;;;;;2.46;100.00;94960.03;4995568;28;20578;-74
2023/12/30 04:27:50;;;;;;;0.63;0.63;;;;;;;2.50;100.00;94961.91;5008304;28;20210;-75
2023/12/30 04:30:17;;;;;;;0.60;0.60;;;;;;;2.46;100.00;94954.69;4995230;28;20240;-74
2023/12/30 04:32:44;;;;;;;1.73;1.58;;;;;;;2.32;100.00;94965.13;4994701;28;20221;-75
2023/12/30 04:35:11;;;;;;;0.73;0.73;;;;;;;2.29;100.00;94959.50;4995213;28;20213;-74
2023/12/30 04:37:38;;;;;;;1.65;1.30;;;;;;;2.10;100.00;94956.56;4994892;28;20558;-74
2023/12/30 04:40:06;;;;;;;0.20;0.20;;;;;;;2.22;100.00;94959.75;4994791;28;20634;-73
2023/12/30 04:42:34;;;;;;;0.47;0.47;;;;;;;2.28;100.00;94968.59;4999270;28;20227;-73
2023/12/30 04:45:01;;;;;;;0.75;0.75;;;;;;;2.29;100.00;94959.50;5014785;28;20209;-74
2023/12/30 04:47:28;;;;;;;0.22;0.22;;;;;;;2.40;100.00;94955.75;5009173;28;20214;-74
2023/12/30 04:49:54;;;;;;;1.00;1.00;;;;;;;2.49;100.00;94951.47;4994309;28;20218;-75
2023/12/30 04:52:21;;;;;;;0.73;0.73;;;;;;;2.40;100.00;94963.78;4994308;28;20209;-74
2023/12/30 04:54:48;;;;;;;0.77;0.73;;;;;;;2.32;100.00;94959.78;5006719;28;20205;-74
2023/12/30 04:57:15;;;;;;;0.32;0.32;;;;;;;2.26;100.00;94966.19;5013890;28;20245;-74
2023/12/30 04:59:57;;;;;;;0.50;0.50;;;;;;;2.32;100.00;94975.81;5013738;28;20233;-75
2023/12/30 05:02:24;;;;;;;1.80;1.45;;;;;;;2.33;100.00;94976.59;5005691;28;20855;-75
2023/12/30 05:04:51;;;;;;;0.40;0.40;;;;;;;2.39;100.00;94978.22;4999085;28;20256;-74
2023/12/30 05:07:18;;;;;;;0.82;0.63;;;;;;;2.32;100.00;94980.34;5002593;28;20209;-74
2023/12/30 05:09:44;;;;;;;0.77;0.77;;;;;;;2.37;100.00;94983.00;4999043;28;20213;-74
2023/12/30 05:12:11;;;;;;;3.08;1.55;;;;;;;2.35;100.00;94979.81;4994264;28;20213;-74
2023/12/30 05:14:38;;;;;;;1.38;1.27;;;;;;;2.27;100.00;94977.69;4995484;28;20220;-74
2023/12/30 05:17:06;;;;;;;1.10;1.00;;;;;;;2.26;100.00;94976.06;5005506;28;20240;-74
2023/12/30 05:19:33;;;;;;;1.17;1.15;;;;;;;2.24;100.00;94988.88;4995963;28;20229;-74
2023/12/30 05:22:00;;;;;;;0.63;0.63;;;;;;;2.14;100.00;94989.69;5004831;28;20300;-74
2023/12/30 05:24:27;;;;;;;1.65;1.55;;;;;;;2.26;100.00;94986.75;4995197;28;20296;-74
2023/12/30 05:26:54;;;;;;;1.90;1.25;;;;;;;2.34;100.00;94988.88;5013768;28;20212;-74
2023/12/30 05:29:21;;;;;;;0.47;0.47;;;;;;;2.39;100.00;94986.22;4997525;28;20206;-73
2023/12/30 05:31:48;;;;;;;0.20;0.20;;;;;;;2.24;100.00;94988.88;4993970;28;20444;-73
2023/12/30 05:34:16;;;;;;;1.23;0.95;;;;;;;2.38;100.00;94984.63;4993878;28;20279;-75
2023/12/30 05:36:43;;;;;;;0.30;0.30;;;;;;;2.25;100.00;94974.47;4993599;28;20217;-75
2023/12/30 05:39:12;;;;;;;11.95;6.50;;;;;;;2.27;100.00;94977.69;4996609;28;20237;-74
2023/12/30 05:41:40;;;;;;;15.15;6.38;;;;;;;2.09;100.00;94985.13;5002922;28;20220;-75
2023/12/30 05:44:07;;;;;;;11.40;6.93;;;;;;;1.91;100.00;94982.19;4993811;28;20599;-74
2023/12/30 05:46:34;;;;;;;12.65;6.18;;;;;;;2.00;100.00;94983.25;4993744;28;20213;-73
2023/12/30 05:49:01;;;;;;;18.48;8.02;;;;;;;2.01;100.00;94985.66;4993513;28;20214;-72
2023/12/30 05:51:30;;;;;;;12.00;6.75;;;;;;;2.05;100.00;94992.06;5004301;28;20263;-74
2023/12/30 05:53:56;;;;;;;9.95;5.15;;;;;;;7.81;100.00;94966.44;5007484;28;20223;-77
2023/12/30 05:56:24;;;;;;;12.85;6.65;;;;;;;7.34;100.00;94973.84;5002504;28;20237;-78
2023/12/30 05:58:53;;;;;;;10.43;5.35;;;;;;;6.98;100.00;94965.59;5007446;28;20245;-77
2023/12/30 06:01:20;;;;;;;2.17;1.17;;;;;;;8.39;100.00;94955.75;4997198;28;20605;-77
2023/12/30 06:03:47;;;;;;;0.30;0.30;;;;;;;5.94;97.14;94978.53;5006468;28;20228;-74
2023/12/30 06:06:14;;;;;;;2.75;2.00;;;;;;;4.74;100.00;94977.69;4993470;28;20241;-77
2023/12/30 06:08:42;;;;;;;0.30;0.30;;;;;;;3.82;100.00;94998.19;4992678;28;20210;-75
2023/12/30 06:11:09;;;;;;;1.05;1.05;;;;;;;3.15;100.00;95010.19;4992621;28;20221;-74
2023/12/30 06:13:39;;;;;;;3.92;1.92;;;;;;;2.90;100.00;95004.91;4992882;28;20218;-75
2023/12/30 06:16:08;;;;;;;1.17;1.08;;;;;;;2.46;100.00;95013.50;4993065;28;20210;-75
2023/12/30 06:18:38;;;;;;;0.75;0.75;;;;;;;2.40;100.00;95009.22;4993284;28;20230;-74
2023/12/30 06:21:05;;;;;;;1.05;1.00;;;;;;;2.32;100.00;95013.25;4993322;28;20253;-75
2023/12/30 06:23:32;;;;;;;0.73;0.73;;;;;;;2.35;100.00;95018.03;4992680;28;20218;-76
2023/12/30 06:26:01;;;;;;;2.03;1.77;;;;;;;2.43;100.00;95016.72;4994628;28;20251;-76
2023/12/30 06:28:29;;;;;;;0.60;0.60;;;;;;;2.29;100.00;95012.97;5012448;28;20232;-75
2023/12/30 06:30:56;;;;;;;0.52;0.50;;;;;;;2.34;100.00;95010.28;5010850;28;20310;-75
2023/12/30 06:33:24;;;;;;;1.27;1.05;;;;;;;2.29;100.00;95012.97;5000123;28;20205;-75
2023/12/30 06:35:51;;;;;;;0.93;0.93;;;;;;;2.38;100.00;95017.50;5005867;28;20220;-75
2023/12/30 06:38:18;;;;;;;0.80;0.80;;;;;;;2.38;100.00;95016.69;5009620;28;20723;-75
2023/12/30 06:40:46;;;;;;;1.02;0.98;;;;;;;2.42;100.00;95023.94;5004430;28;20259;-76
2023/12/30 06:43:15;;;;;;;0.47;0.47;;;;;;;2.68;100.00;95022.06;4998274;28;20214;-75
2023/12/30 06:45:41;;;;;;;0.30;0.30;;;;;;;2.45;100.00;95033.28;5002342;28;20193;-75
2023/12/30 06:48:08;;;;;;;1.25;1.00;;;;;;;2.64;100.00;95036.22;5001880;28;20241;-75
2023/12/30 06:50:35;;;;;;;0.63;0.63;;;;;;;2.75;100.00;95035.16;5002268;28;20284;-75
2023/12/30 06:53:02;;;;;;;2.58;0.90;;;;;;;2.83;100.00;95040.78;5002897;28;20197;-74
2023/12/30 06:55:29;;;;;;;2.65;2.13;;;;;;;2.76;100.00;95040.22;5002066;28;20221;-75
2023/12/30 06:57:56;;;;;;;1.77;1.10;;;;;;;2.68;100.00;95040.78;5000156;28;20232;-74
2023/12/30 07:00:25;;;;;;;2.22;1.05;;;;;;;2.67;100.00;95041.84;5005186;28;20697;-76
2023/12/30 07:02:51;;;;;;;4.47;2.40;;;;;;;2.75;100.00;95043.97;5001691;28;20790;-76
2023/12/30 07:05:18;;;;;;;8.40;3.88;;;;;;;2.68;100.00;95042.66;5002614;28;20223;-74
2023/12/30 07:07:45;;;;;;;4.40;1.00;;;;;;;2.71;100.00;95037.56;5001338;28;20654;-75
2023/12/30 07:10:13;;;;;;;1.52;1.42;;;;;;;2.85;100.00;95049.34;5003379;28;20233;-75
2023/12/30 07:12:39;;;;;;;0.98;0.82;;;;;;;2.78;100.00;95048.78;4992609;28;20228;-75
2023/12/30 07:15:07;;;;;;;1.17;1.17;;;;;;;2.87;100.00;95050.94;4992542;28;20213;-74
2023/12/30 07:17:37;;;;;;;0.30;0.30;;;;;;;3.07;100.00;95050.91;4996830;28;20209;-75
2023/12/30 07:20:03;;;;;;;2.10;1.40;;;;;;;3.17;100.00;95053.56;5011182;28;20228;-74
2023/12/30 07:22:30;;;;;;;2.45;2.28;;;;;;;3.22;100.00;95053.56;4998900;28;20249;-76
2023/12/30 07:24:57;;;;;;;2.78;1.55;;;;;;;3.21;100.00;95063.47;4995830;28;20208;-75
2023/12/30 07:27:24;;;;;;;0.22;0.22;;;;;;;3.51;100.00;95064.47;5012247;28;20211;-75
2023/12/30 07:29:50;;;;;;;0.75;0.75;;;;;;;3.70;100.00;95062.00;5007128;28;20205;-74
2023/12/30 07:32:17;;;;;;;0.60;0.60;;;;;;;3.84;100.00;95071.03;5007352;28;20209;-74
2023/12/30 07:34:46;;;;;;;5.25;3.03;;;;;;;4.05;100.00;95061.84;5011294;28;20299;-74
2023/12/30 07:37:13;;;;;;;5.57;2.38;;;;;;;4.08;99.38;95074.72;5011835;28;20205;-76
2023/12/30 07:39:39;;;;;;;2.17;2.00;;;;;;;4.17;98.53;95070.38;5011576;28;20232;-77
2023/12/30 07:42:06;;;;;;;3.53;2.30;;;;;;;4.02;99.09;95080.34;5011203;28;20304;-75
2023/12/30 07:44:37;;;;;;;1.95;1.58;;;;;;;4.16;99.14;95068.75;5011455;28;20568;-76
2023/12/30 07:47:04;;;;;;;0.38;0.38;;;;;;;4.36;98.59;95067.06;5010007;28;20622;-75
2023/12/30 07:49:31;;;;;;;1.50;0.90;;;;;;;4.29;99.75;95068.16;4999146;28;20204;-74
2023/12/30 07:52:00;;;;;;;1.60;1.50;;;;;;;4.42;98.89;95071.28;4996623;28;20227;-74
2023/12/30 07:54:27;;;;;;;5.82;2.20;;;;;;;4.58;98.87;95064.75;4999868;28;20205;-73
2023/12/30 07:56:54;;;;;;;1.20;1.20;;;;;;;4.79;97.65;95066.19;4994468;28;20245;-75
2023/12/30 07:59:21;;;;;;;0.55;0.45;;;;;;;4.62;98.23;95071.19;4990725;28;20221;-75
2023/12/30 08:01:48;;;;;;;1.92;1.83;;;;;;;4.71;98.58;95068.69;5006443;28;20780;-76
2023/12/30 08:04:14;;;;;;;3.67;2.60;;;;;;;4.87;99.05;95067.50;4991182;28;20209;-76
2023/12/30 08:06:42;;;;;;;1.83;1.73;;;;;;;4.91;98.65;95065.88;4999605;28;20205;-75
2023/12/30 08:09:11;;;;;;;1.77;1.67;;;;;;;5.10;98.26;95068.63;5010330;28;20204;-77
2023/12/30 08:11:38;;;;;;;2.40;1.88;;;;;;;5.23;97.00;95067.97;5002171;28;20296;-74
2023/12/30 08:14:05;;;;;;;0.73;0.73;;;;;;;5.26;96.92;95070.09;4991221;28;20210;-73
2023/12/30 08:16:32;;;;;;;0.82;0.82;;;;;;;5.28;97.13;95079.50;4994917;28;20314;-75
2023/12/30 08:18:59;;;;;;;2.00;0.73;;;;;;;5.22;95.88;95080.59;5000710;28;20296;-76
2023/12/30 08:21:26;;;;;;;1.02;1.02;;;;;;;5.36;95.84;95086.13;5005198;28;20209;-75
2023/12/30 08:23:54;;;;;;;3.30;1.80;;;;;;;5.18;96.39;95084.16;4991342;28;20217;-75
2023/12/30 08:26:23;;;;;;;0.70;0.70;;;;;;;5.20;98.26;95092.72;4991632;28;20214;-75
2023/12/30 08:28:49;;;;;;;1.25;1.20;;;;;;;5.16;96.67;95097.06;4992158;28;20232;-76
2023/12/30 08:31:16;;;;;;;1.85;1.75;;;;;;;5.31;95.80;95096.94;4992812;28;20669;-75
2023/12/30 08:33:43;;;;;;;7.05;1.33;;;;;;;5.35;97.25;95096.06;4991774;28;20630;-74
2023/12/30 08:36:10;;;;;;;0.52;0.52;;;;;;;5.53;97.74;95081.13;4992451;28;20218;-77
2023/12/30 08:38:37;;;;;;;0.38;0.38;;;;;;;5.97;95.78;95096.28;4991618;28;20596;-75
2023/12/30 08:41:04;;;;;;;0.75;0.75;;;;;;;6.09;94.62;95096.66;4991044;28;20312;-76
2023/12/30 08:43:32;;;;;;;1.40;1.33;;;;;;;6.31;93.17;95077.28;4990714;28;20229;-75
2023/12/30 08:45:59;;;;;;;3.08;1.80;;;;;;;6.22;92.80;95085.19;4990845;28;21016;-75
2023/12/30 08:48:26;;;;;;;2.00;1.85;;;;;;;6.06;93.68;95083.78;4991203;28;20218;-75
2023/12/30 08:50:53;;;;;;;2.67;1.88;;;;;;;6.14;94.85;95083.16;4990668;28;20214;-74
2023/12/30 08:53:24;;;;;;;3.30;1.23;;;;;;;6.31;93.50;95063.81;4991405;28;20221;-75
2023/12/30 08:55:52;;;;;;;1.15;1.15;;;;;;;6.59;92.18;95072.84;5002527;28;20237;-75
2023/12/30 08:58:19;;;;;;;3.58;1.92;;;;;;;6.61;92.59;95068.78;4991031;28;20284;-73
2023/12/30 09:00:47;;;;;;;1.45;1.35;;;;;;;6.39;92.32;95066.69;4993582;28;20273;-75
2023/12/30 09:03:14;;;;;;;1.63;1.25;;;;;;;6.61;91.21;95063.41;4999347;28;20217;-74
2023/12/30 09:05:41;;;;;;;2.03;1.92;;;;;;;6.48;92.99;95044.50;5013388;28;20213;-73
2023/12/30 09:08:09;;;;;;;1.83;1.60;;;;;;;6.77;93.43;95058.59;5013543;28;20227;-75
2023/12/30 09:10:35;;;;;;;0.93;0.93;;;;;;;6.94;92.13;95048.09;5013584;28;20216;-75
2023/12/30 09:13:02;;;;;;;5.03;3.08;;;;;;;6.79;90.56;95048.34;5013044;28;20213;-71
2023/12/30 09:15:29;;;;;;;1.98;1.67;;;;;;;6.79;90.83;95053.72;5013480;28;20216;-74
2023/12/30 09:17:58;;;;;;;0.28;0.28;;;;;;;6.95;91.23;95052.41;5013885;28;20569;-74
2023/12/30 09:20:25;;;;;;;2.92;1.38;;;;;;;7.14;89.66;95047.75;5014366;28;20302;-75
2023/12/30 09:22:52;;;;;;;1.58;0.57;;;;;;;7.07;88.29;95041.97;5013070;28;20291;-74
2023/12/30 09:25:19;;;;;;;0.77;0.77;;;;;;;7.33;88.98;95038.81;5013719;28;20213;-76
2023/12/30 09:27:46;;;;;;;2.20;1.40;;;;;;;7.24;88.60;95038.72;5011265;28;20213;-76
2023/12/30 09:30:14;;;;;;;0.75;0.75;;;;;;;7.27;88.06;95034.59;4994259;28;20212;-75
2023/12/30 09:32:40;;;;;;;1.52;1.42;;;;;;;7.40;87.74;95040.03;4993685;28;20249;-74
2023/12/30 09:35:10;;;;;;;0.85;0.85;;;;;;;7.47;86.99;95036.94;4993570;28;20210;-72
2023/12/30 09:37:36;;;;;;;0.60;0.43;;;;;;;7.49;87.03;95029.38;4993307;28;20205;-75
2023/12/30 09:40:04;;;;;;;1.20;1.20;;;;;;;7.57;86.62;95025.97;4992618;28;20240;-74
2023/12/30 09:42:31;;;;;;;1.15;1.15;;;;;;;7.63;86.29;95011.31;4995942;28;20298;-74
2023/12/30 09:44:59;;;;;;;1.10;1.02;;;;;;;7.79;86.44;95012.59;5001035;28;20545;-75
2023/12/30 09:47:28;;;;;;;0.30;0.30;;;;;;;8.09;86.21;94999.56;5003660;28;20212;-75
2023/12/30 09:49:55;;;;;;;0.88;0.82;;;;;;;8.28;85.52;95002.16;5001223;28;20328;-75
2023/12/30 09:52:24;;;;;;;1.45;1.38;;;;;;;8.43;84.51;94999.13;4997680;28;20568;-72
2023/12/30 09:54:51;;;;;;;2.00;1.35;;;;;;;8.63;82.11;94992.47;5003857;28;20600;-73
2023/12/30 09:57:18;;;;;;;1.60;1.35;;;;;;;8.55;82.20;95002.91;4992735;28;20645;-73
2023/12/30 09:59:48;;;;;;;0.60;0.60;;;;;;;8.37;83.47;94994.94;4992122;28;20316;-72
2023/12/30 10:02:15;;;;;;;1.33;1.23;;;;;;;8.57;83.04;94999.09;5002270;28;20216;-75
2023/12/30 10:04:41;;;;;;;3.30;1.95;;;;;;;8.53;82.28;94999.69;5005153;28;20257;-74
2023/12/30 10:07:10;;;;;;;1.10;1.05;;;;;;;8.33;83.42;94994.78;5003132;28;20215;-75
2023/12/30 10:09:38;;;;;;;2.88;2.65;;;;;;;8.18;82.55;94992.38;5005669;28;20197;-75
2023/12/30 10:12:07;;;;;;;1.30;1.27;;;;;;;8.06;83.39;94995.56;5008964;28;20303;-75
2023/12/30 10:14:33;;;;;;;1.35;1.25;;;;;;;8.07;83.90;94990.97;5008842;28;20210;-73
2023/12/30 10:17:04;;;;;;;6.30;2.67;;;;;;;8.29;83.52;94984.84;5016875;28;20219;-73
2023/12/30 10:19:30;;;;;;;0.80;0.80;;;;;;;8.39;81.23;94982.75;4999178;28;20256;-73
2023/12/30 10:21:58;;;;;;;1.75;1.65;;;;;;;8.50;81.80;94973.31;5011664;28;20645;-72
2023/12/30 10:24:25;;;;;;;0.63;0.63;;;;;;;8.37;81.65;94970.66;5011465;28;20307;-74
2023/12/30 10:26:54;;;;;;;2.65;2.08;;;;;;;8.65;82.31;94966.75;5002553;28;20216;-74
2023/12/30 10:29:20;;;;;;;2.70;1.90;;;;;;;8.63;80.56;94965.44;4994147;28;20217;-74
2023/12/30 10:32:00;;;;;;;0.68;0.68;;;;;;;8.65;81.19;94963.25;5009493;28;20422;-75
2023/12/30 10:34:27;;;;;;;1.98;1.30;;;;;;;8.83;91.32;94960.38;5010275;28;20581;-77
2023/12/30 10:36:54;;;;;;;2.75;1.77;;;;;;;9.37;85.69;94963.03;5006982;28;20216;-76
2023/12/30 10:39:23;;;;;;;1.00;1.00;;;;;;;9.31;82.98;94958.88;5009552;28;20232;-74
2023/12/30 10:41:50;;;;;;;1.52;1.42;;;;;;;9.31;82.38;94964.28;5009772;28;20212;-72
2023/12/30 10:44:19;;;;;;;1.45;1.35;;;;;;;9.53;80.69;94961.53;4991595;28;20290;-75
2023/12/30 10:46:48;;;;;;;2.00;1.80;;;;;;;9.50;79.12;94952.13;4991810;28;20685;-75
2023/12/30 10:49:17;;;;;;;4.63;2.33;;;;;;;9.02;80.27;94960.16;4991495;28;20526;-75
2023/12/30 10:51:45;;;;;;;2.20;2.03;;;;;;;9.04;79.42;94949.84;4990802;28;20213;-72
2023/12/30 10:54:19;;;;;;;1.02;0.93;;;;;;;9.10;78.63;94948.59;4998022;28;20266;-73
2023/12/30 10:56:54;;;;;;;1.05;0.65;;;;;;;8.99;79.14;94947.28;4996006;28;20240;-74
2023/12/30 10:59:23;;;;;;;9.82;4.03;;;;;;;9.05;80.10;94951.44;4991044;28;20205;-75
2023/12/30 11:01:50;;;;;;;2.92;1.90;;;;;;;9.09;79.14;94941.59;4997239;28;20699;-75
2023/12/30 11:04:18;;;;;;;7.95;2.20;;;;;;;9.16;79.32;94944.66;5000504;28;20641;-74
2023/12/30 11:06:50;;;;;;;2.95;2.22;;;;;;;9.42;79.22;94933.97;4990875;28;20237;-74
2023/12/30 11:09:19;;;;;;;1.67;1.58;;;;;;;9.15;80.13;94937.69;4990617;28;20729;-74
2023/12/30 11:11:51;;;;;;;1.75;1.58;;;;;;;9.19;80.07;94927.81;4989996;28;20241;-74
2023/12/30 11:14:18;;;;;;;1.33;1.23;;;;;;;9.07;80.17;94933.00;4991106;28;20288;-73
2023/12/30 11:16:50;;;;;;;1.55;1.42;;;;;;;9.34;80.53;94917.69;4990986;28;20575;-73
2023/12/30 11:19:26;;;;;;;1.67;1.17;;;;;;;9.69;79.25;94924.84;4991075;28;20214;-75
2023/12/30 11:21:55;;;;;;;1.60;1.27;;;;;;;9.90;78.43;94917.72;4991402;28;20573;-75
2023/12/30 11:24:22;;;;;;;8.98;3.85;;;;;;;10.05;77.69;94913.75;4991890;28;20205;-73
2023/12/30 11:26:50;;;;;;;1.17;1.10;;;;;;;10.17;76.75;94907.72;5009648;28;20205;-75
2023/12/30 11:29:18;;;;;;;2.70;1.20;;;;;;;10.22;76.17;94902.19;5008039;28;20240;-74
2023/12/30 11:31:50;;;;;;;3.85;1.88;;;;;;;10.20;75.02;94904.41;4989136;28;20213;-73
2023/12/30 11:34:17;;;;;;;5.32;2.83;;;;;;;10.22;74.87;94902.19;5008690;28;20293;-74
2023/12/30 11:36:46;;;;;;;2.53;2.25;;;;;;;10.07;76.11;94891.78;4998760;28;20206;-74
2023/12/30 11:39:19;;;;;;;16.33;8.35;;;;;;;9.93;77.21;94895.44;4999432;28;20208;-73